createdAt,value
2022-09-28T00:01:52.165Z,99725.53
2022-09-28T00:06:53.746Z,99712.63
2022-09-28T00:11:56.209Z,99716.19
2022-09-28T00:16:57.791Z,99715.00
2022-09-28T00:21:59.257Z,99709.03
2022-09-28T00:27:02.502Z,99705.56
2022-09-28T00:32:10.735Z,99698.69
2022-09-28T00:37:13.771Z,99689.91
2022-09-28T00:42:17.435Z,99705.09
2022-09-28T00:47:43.168Z,99704.38
2022-09-28T00:53:06.332Z,99694.91
2022-09-28T00:58:12.259Z,99710.28
2022-09-28T01:03:14.360Z,99701.91
2022-09-28T01:08:17.515Z,99694.75
2022-09-28T01:13:20.842Z,99681.75
2022-09-28T01:18:34.354Z,99671.88
2022-09-28T01:24:02.383Z,99669.84
2022-09-28T01:29:19.413Z,99673.50
2022-09-28T01:34:28.743Z,99682.69
2022-09-28T01:39:36.011Z,99682.31
2022-09-28T01:44:42.631Z,99673.53
2022-09-28T01:49:57.971Z,99678.81
2022-09-28T01:55:31.249Z,99673.78
2022-09-28T02:00:36.055Z,99672.94
2022-09-28T02:05:40.659Z,99667.06
2022-09-28T02:10:48.399Z,99664.50
2022-09-28T02:16:03.567Z,99659.44
2022-09-28T02:21:15.044Z,99657.75
2022-09-28T02:26:21.385Z,99662.88
2022-09-28T02:31:23.924Z,99659.59
2022-09-28T02:36:27.504Z,99656.97
2022-09-28T02:41:47.364Z,99659.38
2022-09-28T02:47:10.687Z,99661.88
2022-09-28T02:52:15.254Z,99666.88
2022-09-28T02:57:37.395Z,99658.47
2022-09-28T03:03:02.334Z,99662.63
2022-09-28T03:08:31.166Z,99666.00
2022-09-28T03:13:35.158Z,99669.47
2022-09-28T03:18:36.894Z,99666.81
2022-09-28T03:23:40.374Z,99669.41
2022-09-28T03:28:42.058Z,99660.84
2022-09-28T03:33:48.484Z,99664.31
2022-09-28T03:38:55.072Z,99662.69
2022-09-28T03:43:58.504Z,99670.38
2022-09-28T03:49:02.169Z,99672.03
2022-09-28T03:54:04.197Z,99677.19
2022-09-28T03:59:05.802Z,99675.44
2022-09-28T04:04:07.408Z,99678.97
2022-09-28T04:09:11.526Z,99678.25
2022-09-28T04:14:13.168Z,99678.25
2022-09-28T04:19:15.844Z,99662.88
2022-09-28T04:24:24.650Z,99677.41
2022-09-28T04:29:26.582Z,99679.97
2022-09-28T04:34:37.091Z,99673.13
2022-09-28T04:39:43.019Z,99671.84
2022-09-28T04:44:46.955Z,99677.16
2022-09-28T04:49:48.552Z,99680.47
2022-09-28T04:54:54.369Z,99684.22
2022-09-28T04:59:56.202Z,99683.41
2022-09-28T05:04:58.916Z,99684.13
2022-09-28T05:10:31.164Z,99670.19
2022-09-28T05:15:34.661Z,99667.28
2022-09-28T05:20:41.152Z,99675.66
2022-09-28T05:25:45.264Z,99687.56
2022-09-28T05:30:52.896Z,99693.09
2022-09-28T05:36:03.645Z,99690.50
2022-09-28T05:41:06.786Z,99684.53
2022-09-28T05:46:08.588Z,99697.50
2022-09-28T05:51:13.289Z,99707.31
2022-09-28T05:56:14.911Z,99717.03
2022-09-28T06:01:19.100Z,99725.22
2022-09-28T06:06:21.104Z,99732.63
2022-09-28T06:11:27.024Z,99738.44
2022-09-28T06:16:31.029Z,99742.69
2022-09-28T06:21:33.073Z,99759.41
2022-09-28T06:26:34.640Z,99771.34
2022-09-28T06:31:36.397Z,99860.19
2022-09-28T06:36:38.668Z,99871.88
2022-09-28T06:41:41.233Z,99874.28
2022-09-28T06:46:49.736Z,99861.88
2022-09-28T06:51:51.933Z,99848.53
2022-09-28T06:56:56.131Z,99840.25
2022-09-28T07:01:57.800Z,99835.97
2022-09-28T07:07:22.440Z,99831.88
2022-09-28T07:12:35.862Z,99825.19
2022-09-28T07:17:58.971Z,99803.38
2022-09-28T07:23:17.659Z,99799.69
2022-09-28T07:28:41.436Z,99741.34
2022-09-28T07:33:53.939Z,99687.66
2022-09-28T07:39:03.478Z,99667.19
2022-09-28T07:44:08.332Z,99659.53
2022-09-28T07:49:15.539Z,99651.16
2022-09-28T07:54:52.134Z,99639.16
2022-09-28T08:00:09.486Z,99642.63
2022-09-28T08:05:19.911Z,99641.75
2022-09-28T08:10:22.416Z,99652.81
2022-09-28T08:15:51.760Z,99676.81
2022-09-28T08:21:25.894Z,99703.25
2022-09-28T08:26:29.080Z,99703.25
2022-09-28T08:31:31.179Z,99705.41
2022-09-28T08:36:53.588Z,99698.53
2022-09-28T08:42:20.935Z,99706.22
2022-09-28T08:48:27.629Z,99711.31
2022-09-28T08:54:06.850Z,99695.94
2022-09-28T08:59:43.586Z,99709.56
2022-09-28T09:04:52.013Z,99681.94
2022-09-28T09:10:26.269Z,99677.50
2022-09-28T09:15:53.865Z,99684.53
2022-09-28T09:21:15.533Z,99670.13
2022-09-28T09:26:24.661Z,99658.31
2022-09-28T09:31:50.147Z,99671.72
2022-09-28T09:37:17.874Z,99704.63
2022-09-28T09:43:08.896Z,99680.72
2022-09-28T09:48:38.276Z,99694.16
2022-09-28T09:53:47.221Z,99693.13
2022-09-28T09:58:53.350Z,99679.63
2022-09-28T10:04:25.887Z,99671.59
2022-09-28T10:09:44.042Z,99670.03
2022-09-28T10:15:03.049Z,99675.31
2022-09-28T10:20:13.498Z,99674.47
2022-09-28T10:25:33.991Z,99669.63
2022-09-28T10:30:42.789Z,99672.69
2022-09-28T10:35:47.767Z,99669.44
2022-09-28T10:40:51.496Z,99664.34
2022-09-28T10:46:14.037Z,99674.81
2022-09-28T10:51:39.177Z,99677.59
2022-09-28T10:56:41.973Z,99678.47
2022-09-28T11:02:18.592Z,99671.78
2022-09-28T11:07:24.769Z,99670.19
2022-09-28T11:12:29.400Z,99674.78
2022-09-28T11:17:38.805Z,99681.78
2022-09-28T11:22:42.370Z,99681.94
2022-09-28T11:27:51.841Z,99667.53
2022-09-28T11:33:03.544Z,99666.16
2022-09-28T11:39:04.932Z,99668.63
2022-09-28T11:44:23.909Z,99668.03
2022-09-28T11:49:56.472Z,99663.75
2022-09-28T11:55:05.775Z,99665.31
2022-09-28T12:00:15.475Z,99662.78
2022-09-28T12:05:31.539Z,99661.78
2022-09-28T12:10:45.429Z,99659.31
2022-09-28T12:16:45.179Z,99665.28
2022-09-28T12:21:24.688Z,99668.69
2022-09-28T12:26:48.282Z,99665.38
2022-09-28T12:32:02.571Z,99674.44
2022-09-28T12:37:22.958Z,99660.69
2022-09-28T12:42:36.690Z,99656.16
2022-09-28T12:48:03.186Z,99659.91
2022-09-28T12:53:38.807Z,99655.78
2022-09-28T12:59:08.965Z,99651.38
2022-09-28T13:04:17.219Z,99643.56
2022-09-28T13:09:21.618Z,99652.59
2022-09-28T13:14:44.836Z,99651.38
2022-09-28T13:19:59.672Z,99651.75
2022-09-28T13:25:07.836Z,99649.16
2022-09-28T13:30:14.584Z,99651.41
2022-09-28T13:35:21.703Z,99658.53
2022-09-28T13:41:01.615Z,99655.41
2022-09-28T13:46:10.376Z,99645.03
2022-09-28T13:51:29.730Z,99645.97
2022-09-28T13:56:40.684Z,99646.09
2022-09-28T14:02:00.721Z,99647.47
2022-09-28T14:07:15.285Z,99649.44
2022-09-28T14:12:35.281Z,99640.47
2022-09-28T14:17:54.359Z,99646.31
2022-09-28T14:23:14.154Z,99638.09
2022-09-28T14:28:39.073Z,99636.97
2022-09-28T14:33:42.840Z,99641.78
2022-09-28T14:39:08.359Z,99642.22
2022-09-28T14:44:12.544Z,99649.94
2022-09-28T14:49:16.903Z,99662.22
2022-09-28T14:54:21.206Z,99666.78
2022-09-28T14:59:42.896Z,99670.38
2022-09-28T15:05:14.013Z,99693.31
2022-09-28T15:10:33.323Z,99713.97
2022-09-28T15:15:40.810Z,99725.19
2022-09-28T15:20:46.722Z,99773.88
2022-09-28T15:25:53.064Z,99835.78
2022-09-28T15:31:03.006Z,99842.97
2022-09-28T15:36:07.868Z,99852.81
2022-09-28T15:41:11.181Z,99882.75
2022-09-28T15:46:18.404Z,99889.25
2022-09-28T15:51:22.066Z,99909.03
2022-09-28T15:56:24.356Z,99934.00
2022-09-28T16:01:36.659Z,99942.06
2022-09-28T16:06:40.820Z,99941.69
2022-09-28T16:11:42.360Z,99942.81
2022-09-28T16:16:48.201Z,99967.78
2022-09-28T16:21:53.527Z,99984.88
2022-09-28T16:27:06.847Z,99993.38
2022-09-28T16:32:26.573Z,100000.09
2022-09-28T16:37:32.235Z,100011.47
2022-09-28T16:42:33.822Z,100097.03
2022-09-28T16:47:36.046Z,100090.88
2022-09-28T16:52:59.845Z,100098.84
2022-09-28T16:58:04.554Z,100092.00
2022-09-28T17:03:18.473Z,100092.81
2022-09-28T17:08:22.320Z,100108.91
2022-09-28T17:13:33.382Z,100116.41
2022-09-28T17:18:39.087Z,100124.22
2022-09-28T17:23:40.582Z,100124.09
2022-09-28T17:28:42.204Z,100111.84
2022-09-28T17:33:43.827Z,100123.63
2022-09-28T17:38:46.729Z,100121.03
2022-09-28T17:43:49.256Z,100134.94
2022-09-28T17:48:50.800Z,100116.00
2022-09-28T17:53:54.403Z,100117.31
2022-09-28T17:58:58.436Z,100135.00
2022-09-28T18:04:01.549Z,100136.69
2022-09-28T18:09:04.004Z,100143.28
2022-09-28T18:14:10.463Z,100138.84
2022-09-28T18:19:12.670Z,100134.72
2022-09-28T18:24:14.211Z,100131.88
2022-09-28T18:29:17.524Z,100137.00
2022-09-28T18:34:19.242Z,100136.91
2022-09-28T18:39:21.106Z,100125.72
2022-09-28T18:44:23.990Z,100121.97
2022-09-28T18:49:25.584Z,100130.84
2022-09-28T18:54:27.225Z,100141.28
2022-09-28T18:59:28.770Z,100152.50
2022-09-28T19:04:31.108Z,100154.31
2022-09-28T19:09:33.024Z,100155.91
2022-09-28T19:14:34.551Z,100162.56
2022-09-28T19:19:37.056Z,100167.72
2022-09-28T19:24:38.689Z,100167.91
2022-09-28T19:29:40.173Z,100168.69
2022-09-28T19:34:41.677Z,100155.56
2022-09-28T19:39:43.165Z,100157.53
2022-09-28T19:44:44.863Z,100171.44
2022-09-28T19:49:46.807Z,100177.94
2022-09-28T19:54:56.458Z,100188.84
2022-09-28T20:00:02.429Z,100199.25
2022-09-28T20:05:07.933Z,100202.41
2022-09-28T20:10:12.383Z,100204.91
2022-09-28T20:15:13.954Z,100207.50
2022-09-28T20:20:15.586Z,100199.53
2022-09-28T20:25:17.058Z,100196.16
2022-09-28T20:30:18.672Z,100200.38
2022-09-28T20:35:32.315Z,100208.09
2022-09-28T20:40:36.551Z,100207.81
2022-09-28T20:45:38.149Z,100211.03
2022-09-28T20:50:41.319Z,100213.25
2022-09-28T20:55:42.785Z,100214.13
2022-09-28T21:00:44.264Z,100196.44
2022-09-28T21:05:46.414Z,100199.16
2022-09-28T21:10:47.906Z,100209.53
2022-09-28T21:15:50.004Z,100197.53
2022-09-28T21:20:51.600Z,100205.22
2022-09-28T21:26:11.087Z,100205.63
2022-09-28T21:31:12.973Z,100203.72
2022-09-28T21:36:14.506Z,100213.53
2022-09-28T21:41:16.313Z,100222.84
2022-09-28T21:46:18.003Z,100230.31
2022-09-28T21:51:20.091Z,100226.94
2022-09-28T21:56:23.072Z,100226.50
2022-09-28T22:01:26.062Z,100231.41
2022-09-28T22:06:28.191Z,100240.72
2022-09-28T22:11:29.751Z,100240.56
2022-09-28T22:16:31.818Z,100245.41
2022-09-28T22:21:34.987Z,100250.34
2022-09-28T22:26:37.888Z,100262.06
2022-09-28T22:31:40.731Z,100237.00
2022-09-28T22:36:42.445Z,100238.72
2022-09-28T22:41:43.986Z,100237.00
2022-09-28T22:46:46.532Z,100243.94
2022-09-28T22:51:48.303Z,100244.91
2022-09-28T22:56:49.880Z,100248.97
2022-09-28T23:01:51.410Z,100257.50
2022-09-28T23:06:52.901Z,100260.88
2022-09-28T23:11:54.405Z,100258.69
2022-09-28T23:16:55.881Z,100257.09
2022-09-28T23:21:59.247Z,100258.56
2022-09-28T23:27:00.806Z,100263.31
2022-09-28T23:32:02.353Z,100277.88
2022-09-28T23:37:03.825Z,100277.00
2022-09-28T23:42:05.889Z,100276.22
2022-09-28T23:47:07.409Z,100275.59
2022-09-28T23:52:09.099Z,100274.88
2022-09-28T23:57:10.631Z,100272.41
